createdAt,value
2018-04-30T00:00:27.561Z,107.57
2018-04-30T00:01:31.753Z,107.90
2018-04-30T00:02:35.947Z,117.70
2018-04-30T00:03:40.152Z,110.23
2018-04-30T00:04:44.524Z,115.20
2018-04-30T00:05:49.462Z,110.97
2018-04-30T00:06:53.633Z,101.50
2018-04-30T00:07:57.814Z,106.57
2018-04-30T00:09:01.990Z,97.00
2018-04-30T00:10:06.211Z,104.50
2018-04-30T00:11:10.390Z,114.40
2018-04-30T00:12:14.557Z,100.20
2018-04-30T00:13:18.736Z,110.53
2018-04-30T00:14:22.949Z,128.10
2018-04-30T00:15:27.150Z,121.77
2018-04-30T00:16:32.099Z,124.30
2018-04-30T00:17:36.298Z,114.03
2018-04-30T00:18:40.469Z,108.20
2018-04-30T00:19:44.640Z,137.37
2018-04-30T00:20:49.027Z,121.57
2018-04-30T00:21:53.200Z,129.47
2018-04-30T00:22:57.377Z,118.60
2018-04-30T00:24:01.589Z,114.03
2018-04-30T00:25:05.760Z,124.43
2018-04-30T00:26:10.745Z,126.43
2018-04-30T00:27:14.925Z,123.50
2018-04-30T00:28:19.094Z,120.47
2018-04-30T00:29:24.038Z,126.67
2018-04-30T00:30:28.216Z,131.70
2018-04-30T00:31:32.671Z,138.80
2018-04-30T00:32:37.617Z,132.97
2018-04-30T00:33:41.802Z,133.20
2018-04-30T00:34:45.988Z,132.23
2018-04-30T00:35:50.173Z,127.53
2018-04-30T00:36:54.374Z,141.77
2018-04-30T00:37:58.541Z,124.23
2018-04-30T00:39:03.509Z,127.73
2018-04-30T00:40:07.725Z,123.27
2018-04-30T00:41:11.901Z,128.27
2018-04-30T00:42:16.114Z,136.10
2018-04-30T00:43:20.286Z,136.47
2018-04-30T00:44:24.463Z,129.60
2018-04-30T00:45:28.656Z,133.07
2018-04-30T00:46:33.067Z,123.70
2018-04-30T00:47:37.244Z,144.57
2018-04-30T00:48:42.181Z,124.53
2018-04-30T00:49:47.116Z,130.07
2018-04-30T00:50:51.372Z,145.77
2018-04-30T00:51:56.660Z,129.90
2018-04-30T00:53:01.621Z,132.10
2018-04-30T00:54:05.786Z,121.93
2018-04-30T00:55:10.817Z,143.53
2018-04-30T00:56:15.762Z,137.47
2018-04-30T00:57:19.966Z,127.30
2018-04-30T00:58:24.924Z,140.57
2018-04-30T00:59:29.090Z,126.37
2018-04-30T01:00:33.277Z,127.40
2018-04-30T01:01:37.491Z,123.60
2018-04-30T01:02:41.690Z,145.03
2018-04-30T01:03:45.856Z,150.50
2018-04-30T01:04:50.028Z,144.77
2018-04-30T01:05:54.251Z,127.03
2018-04-30T01:06:59.194Z,127.63
2018-04-30T01:08:04.320Z,146.37
2018-04-30T01:09:09.262Z,137.77
2018-04-30T01:10:13.429Z,157.87
2018-04-30T01:11:17.614Z,158.63
2018-04-30T01:12:21.833Z,145.20
2018-04-30T01:13:26.033Z,140.07
2018-04-30T01:14:30.210Z,154.37
2018-04-30T01:15:35.186Z,128.20
2018-04-30T01:16:39.361Z,150.73
2018-04-30T01:17:43.537Z,135.90
2018-04-30T01:18:48.525Z,132.93
2018-04-30T01:19:52.709Z,128.57
2018-04-30T01:20:57.026Z,142.97
2018-04-30T01:22:01.206Z,133.93
2018-04-30T01:23:06.140Z,133.73
2018-04-30T01:24:11.129Z,151.73
2018-04-30T01:25:15.340Z,158.30
2018-04-30T01:26:19.540Z,142.20
2018-04-30T01:27:23.731Z,130.57
2018-04-30T01:28:27.901Z,131.37
2018-04-30T01:29:32.450Z,124.40
2018-04-30T01:30:36.626Z,123.60
2018-04-30T01:31:40.805Z,117.03
2018-04-30T01:32:44.977Z,146.27
2018-04-30T01:33:49.149Z,133.33
2018-04-30T01:34:53.480Z,130.90
2018-04-30T01:35:58.429Z,128.43
2018-04-30T01:37:02.597Z,111.40
2018-04-30T01:38:06.769Z,118.63
2018-04-30T01:39:10.956Z,107.17
2018-04-30T01:40:15.153Z,109.17
2018-04-30T01:41:20.113Z,117.13
2018-04-30T01:42:24.289Z,114.77
2018-04-30T01:43:29.258Z,108.57
2018-04-30T01:44:33.465Z,115.00
2018-04-30T01:45:38.494Z,108.67
2018-04-30T01:46:42.673Z,107.50
2018-04-30T01:47:47.608Z,101.07
2018-04-30T01:48:51.823Z,101.83
2018-04-30T01:49:56.018Z,103.50
2018-04-30T01:51:00.993Z,107.30
2018-04-30T01:52:05.192Z,117.07
2018-04-30T01:53:09.368Z,92.67
2018-04-30T01:54:14.317Z,100.87
2018-04-30T01:55:18.538Z,97.20
2018-04-30T01:56:22.705Z,101.07
2018-04-30T01:57:27.664Z,103.13
2018-04-30T01:58:31.846Z,96.90
2018-04-30T01:59:36.793Z,112.70
2018-04-30T02:00:41.030Z,105.90
2018-04-30T02:01:45.216Z,112.80
2018-04-30T02:02:49.402Z,116.27
2018-04-30T02:03:54.332Z,98.30
2018-04-30T02:04:59.278Z,107.83
2018-04-30T02:06:03.524Z,100.73
2018-04-30T02:07:07.708Z,100.37
2018-04-30T02:08:11.889Z,108.07
2018-04-30T02:09:16.830Z,112.07
2018-04-30T02:10:21.765Z,102.77
2018-04-30T02:11:26.023Z,115.60
2018-04-30T02:12:30.211Z,109.37
2018-04-30T02:13:34.388Z,113.07
2018-04-30T02:14:39.321Z,98.97
2018-04-30T02:15:44.270Z,102.40
2018-04-30T02:16:48.947Z,105.20
2018-04-30T02:17:53.884Z,118.97
2018-04-30T02:18:58.825Z,103.50
2018-04-30T02:20:03.780Z,89.63
2018-04-30T02:21:07.956Z,88.50
2018-04-30T02:22:12.917Z,93.47
2018-04-30T02:23:17.093Z,76.77
2018-04-30T02:24:22.017Z,75.17
2018-04-30T02:25:26.971Z,74.27
2018-04-30T02:26:31.206Z,77.07
2018-04-30T02:27:35.572Z,65.67
2018-04-30T02:28:40.505Z,68.03
2018-04-30T02:29:44.682Z,73.67
2018-04-30T02:30:48.854Z,89.00
2018-04-30T02:31:53.025Z,69.77
2018-04-30T02:32:57.997Z,79.60
2018-04-30T02:34:02.176Z,74.77
2018-04-30T02:35:07.177Z,76.10
2018-04-30T02:36:11.354Z,75.37
2018-04-30T02:37:15.530Z,77.27
2018-04-30T02:38:19.710Z,81.80
2018-04-30T02:39:23.877Z,89.53
2018-04-30T02:40:28.091Z,90.60
2018-04-30T02:41:32.311Z,87.47
2018-04-30T02:42:36.505Z,87.90
2018-04-30T02:43:40.715Z,77.27
2018-04-30T02:44:44.903Z,87.97
2018-04-30T02:45:49.085Z,98.53
2018-04-30T02:46:53.262Z,94.57
2018-04-30T02:47:57.457Z,81.93
2018-04-30T02:49:01.658Z,94.03
2018-04-30T02:50:05.857Z,105.27
2018-04-30T02:51:10.077Z,90.03
2018-04-30T02:52:14.258Z,91.30
2018-04-30T02:53:19.220Z,90.13
2018-04-30T02:54:23.394Z,90.40
2018-04-30T02:55:28.316Z,94.43
2018-04-30T02:56:32.485Z,108.80
2018-04-30T02:57:36.657Z,92.07
2018-04-30T02:58:41.786Z,96.27
2018-04-30T02:59:46.740Z,106.73
2018-04-30T03:00:50.910Z,89.77
2018-04-30T03:01:55.845Z,92.73
2018-04-30T03:03:00.777Z,94.30
2018-04-30T03:04:05.744Z,101.43
2018-04-30T03:05:09.913Z,90.67
2018-04-30T03:06:14.873Z,94.90
2018-04-30T03:07:19.049Z,93.30
2018-04-30T03:08:23.994Z,83.37
2018-04-30T03:09:28.162Z,86.03
2018-04-30T03:10:34.146Z,86.33
2018-04-30T03:11:38.318Z,95.47
2018-04-30T03:12:42.489Z,89.23
2018-04-30T03:13:46.658Z,88.50
2018-04-30T03:14:51.622Z,93.67
2018-04-30T03:15:55.809Z,86.53
2018-04-30T03:17:00.862Z,85.60
2018-04-30T03:18:05.061Z,87.20
2018-04-30T03:19:09.229Z,95.67
2018-04-30T03:20:13.393Z,82.87
2018-04-30T03:21:17.567Z,84.20
2018-04-30T03:22:21.742Z,107.43
2018-04-30T03:23:25.950Z,108.47
2018-04-30T03:24:30.133Z,92.50
2018-04-30T03:25:34.330Z,99.73
2018-04-30T03:26:38.511Z,104.27
2018-04-30T03:27:42.691Z,103.73
2018-04-30T03:28:46.883Z,102.97
2018-04-30T03:29:51.061Z,98.17
2018-04-30T03:30:56.331Z,101.37
2018-04-30T03:32:00.518Z,96.10
2018-04-30T03:33:04.714Z,92.30
2018-04-30T03:34:09.654Z,105.50
2018-04-30T03:35:13.860Z,109.93
2018-04-30T03:36:18.849Z,112.73
2018-04-30T03:37:23.049Z,116.97
2018-04-30T03:38:27.505Z,129.70
2018-04-30T03:39:32.453Z,122.93
2018-04-30T03:40:36.621Z,122.90
2018-04-30T03:41:42.297Z,135.00
2018-04-30T03:42:47.233Z,129.00
2018-04-30T03:43:51.841Z,126.07
2018-04-30T03:44:56.035Z,128.07
2018-04-30T03:46:01.008Z,134.57
2018-04-30T03:47:05.177Z,133.87
2018-04-30T03:48:10.137Z,123.10
2018-04-30T03:49:14.339Z,136.73
2018-04-30T03:50:19.044Z,138.50
2018-04-30T03:51:23.990Z,132.00
2018-04-30T03:52:28.164Z,142.30
2018-04-30T03:53:32.745Z,146.60
2018-04-30T03:54:36.909Z,142.20
2018-04-30T03:55:42.049Z,149.40
2018-04-30T03:56:46.991Z,147.77
2018-04-30T03:57:51.167Z,136.40
2018-04-30T03:58:55.411Z,142.60
2018-04-30T03:59:59.580Z,132.33
2018-04-30T04:01:21.618Z,149.90
2018-04-30T04:04:28.997Z,129.90
2018-04-30T04:05:50.830Z,126.10
2018-04-30T04:06:55.012Z,139.87
2018-04-30T04:07:59.230Z,146.53
2018-04-30T04:09:03.443Z,140.77
2018-04-30T04:10:07.614Z,134.33
2018-04-30T04:11:12.550Z,147.37
2018-04-30T04:12:16.744Z,155.80
2018-04-30T04:13:21.877Z,132.97
2018-04-30T04:14:26.819Z,135.00
2018-04-30T04:15:30.989Z,139.77
2018-04-30T04:16:35.168Z,146.23
2018-04-30T04:17:39.340Z,138.23
2018-04-30T04:18:44.336Z,127.87
2018-04-30T04:19:48.509Z,137.07
2018-04-30T04:20:52.705Z,133.90
2018-04-30T04:21:56.873Z,146.47
2018-04-30T04:23:01.063Z,147.03
2018-04-30T04:24:05.258Z,147.93
2018-04-30T04:25:09.446Z,150.07
2018-04-30T04:26:14.149Z,152.13
2018-04-30T04:27:19.087Z,161.40
2018-04-30T04:28:23.262Z,149.20
2018-04-30T04:29:27.439Z,151.77
2018-04-30T04:30:31.618Z,175.23
2018-04-30T04:31:35.809Z,163.37
2018-04-30T04:32:40.954Z,158.20
2018-04-30T04:33:45.893Z,171.63
2018-04-30T04:34:50.073Z,174.73
2018-04-30T04:35:55.026Z,182.90
2018-04-30T04:36:59.229Z,196.80
2018-04-30T04:38:04.679Z,154.23
2018-04-30T04:39:08.856Z,147.10
2018-04-30T04:40:13.029Z,148.80
2018-04-30T04:41:17.206Z,155.77
2018-04-30T04:42:21.417Z,167.47
2018-04-30T04:43:25.637Z,168.37
2018-04-30T04:44:29.810Z,157.23
2018-04-30T04:45:33.996Z,149.03
2018-04-30T04:46:38.173Z,161.27
2018-04-30T04:47:42.366Z,166.63
2018-04-30T04:48:46.601Z,162.20
2018-04-30T04:49:50.797Z,168.77
2018-04-30T04:50:54.968Z,169.27
2018-04-30T04:51:59.145Z,153.57
2018-04-30T04:53:03.345Z,155.73
2018-04-30T04:54:07.584Z,152.10
2018-04-30T04:55:11.766Z,159.30
2018-04-30T04:56:15.944Z,170.97
2018-04-30T04:57:20.880Z,167.97
2018-04-30T04:58:25.092Z,156.23
2018-04-30T04:59:29.293Z,160.33
2018-04-30T05:00:34.238Z,137.13
2018-04-30T05:01:38.462Z,134.73
2018-04-30T05:02:42.633Z,129.37
2018-04-30T05:03:47.584Z,135.37
2018-04-30T05:04:51.750Z,132.30
2018-04-30T05:05:55.934Z,163.20
2018-04-30T05:07:00.300Z,161.53
2018-04-30T05:08:05.241Z,161.27
2018-04-30T05:09:09.422Z,174.47
2018-04-30T05:10:14.381Z,174.30
2018-04-30T05:11:18.545Z,165.40
2018-04-30T05:12:23.188Z,166.90
2018-04-30T05:13:28.157Z,171.83
2018-04-30T05:14:32.360Z,169.63
2018-04-30T05:15:36.529Z,165.27
2018-04-30T05:16:40.695Z,162.97
2018-04-30T05:17:44.897Z,175.20
2018-04-30T05:18:49.133Z,161.60
2018-04-30T05:19:53.301Z,180.17
2018-04-30T05:20:57.488Z,180.87
2018-04-30T05:22:02.445Z,201.57
2018-04-30T05:23:06.633Z,204.70
2018-04-30T05:24:11.713Z,185.23
2018-04-30T05:25:15.880Z,205.93
2018-04-30T05:26:20.062Z,178.43
2018-04-30T05:27:24.233Z,180.97
2018-04-30T05:28:28.401Z,171.53
2018-04-30T05:29:33.548Z,183.77
2018-04-30T05:30:37.735Z,180.03
2018-04-30T05:31:42.672Z,177.77
2018-04-30T05:32:47.613Z,231.93
2018-04-30T05:33:51.851Z,212.90
2018-04-30T05:34:56.768Z,183.57
2018-04-30T05:36:00.945Z,190.93
2018-04-30T05:37:05.881Z,206.77
2018-04-30T05:38:10.820Z,179.97
2018-04-30T05:39:15.426Z,186.23
2018-04-30T05:40:20.366Z,186.83
2018-04-30T05:41:24.537Z,183.23
2018-04-30T05:42:28.714Z,177.13
2018-04-30T05:43:32.880Z,182.17
2018-04-30T05:44:37.855Z,169.37
2018-04-30T05:45:42.025Z,175.57
2018-04-30T05:46:46.224Z,175.93
2018-04-30T05:47:52.045Z,160.63
2018-04-30T05:48:56.220Z,167.90
2018-04-30T05:50:00.425Z,164.60
2018-04-30T05:51:04.602Z,176.67
2018-04-30T05:52:09.540Z,190.57
2018-04-30T05:53:14.976Z,180.23
2018-04-30T05:54:19.908Z,158.63
2018-04-30T05:55:24.845Z,173.13
2018-04-30T05:56:29.049Z,163.97
2018-04-30T05:57:33.992Z,163.63
2018-04-30T05:58:38.217Z,149.83
2018-04-30T05:59:42.388Z,147.90
2018-04-30T06:00:47.323Z,143.33
2018-04-30T06:01:51.520Z,148.13
2018-04-30T06:02:56.472Z,150.90
2018-04-30T06:04:01.182Z,163.00
2018-04-30T06:05:06.224Z,133.20
2018-04-30T06:06:10.394Z,143.30
2018-04-30T06:07:14.564Z,143.07
2018-04-30T06:08:18.732Z,120.07
2018-04-30T06:09:23.729Z,137.20
2018-04-30T06:10:27.900Z,139.03
2018-04-30T06:11:32.064Z,120.03
2018-04-30T06:12:36.237Z,120.73
2018-04-30T06:13:40.408Z,158.93
2018-04-30T06:14:44.629Z,152.63
2018-04-30T06:15:48.808Z,158.13
2018-04-30T06:16:52.997Z,127.37
2018-04-30T06:17:57.167Z,113.47
2018-04-30T06:19:01.486Z,129.03
2018-04-30T06:20:05.868Z,131.90
2018-04-30T06:21:10.816Z,140.70
2018-04-30T06:22:14.985Z,111.83
2018-04-30T06:23:19.165Z,113.23
2018-04-30T06:24:23.610Z,136.00
2018-04-30T06:25:27.825Z,138.63
2018-04-30T06:26:32.139Z,127.60
2018-04-30T06:27:36.294Z,129.60
2018-04-30T06:28:40.461Z,153.07
2018-04-30T06:29:44.786Z,138.33
2018-04-30T06:30:49.721Z,135.03
2018-04-30T06:31:54.657Z,137.20
2018-04-30T06:32:58.844Z,136.13
2018-04-30T06:34:03.020Z,143.90
2018-04-30T06:35:07.380Z,155.93
2018-04-30T06:36:12.322Z,147.87
2018-04-30T06:37:16.493Z,144.43
2018-04-30T06:38:20.675Z,142.90
2018-04-30T06:39:24.849Z,141.53
2018-04-30T06:40:29.462Z,145.23
2018-04-30T06:41:34.397Z,144.47
2018-04-30T06:42:38.589Z,151.83
2018-04-30T06:43:43.532Z,151.03
2018-04-30T06:44:48.489Z,189.53
2018-04-30T06:45:52.685Z,165.37
2018-04-30T06:46:56.913Z,160.13
2018-04-30T06:48:01.085Z,164.27
2018-04-30T06:49:06.053Z,143.70
2018-04-30T06:50:10.216Z,142.93
2018-04-30T06:51:15.162Z,162.80
2018-04-30T06:52:20.145Z,160.87
2018-04-30T06:53:24.371Z,164.33
2018-04-30T06:54:28.547Z,150.63
2018-04-30T06:55:32.743Z,164.73
2018-04-30T06:56:36.920Z,165.97
2018-04-30T06:57:41.876Z,189.43
2018-04-30T06:58:46.053Z,170.40
2018-04-30T06:59:50.988Z,179.47
2018-04-30T07:00:55.921Z,184.33
2018-04-30T07:02:00.861Z,180.80
2018-04-30T07:03:05.081Z,176.87
2018-04-30T07:04:09.257Z,171.13
2018-04-30T07:05:14.197Z,195.40
2018-04-30T07:06:19.145Z,202.70
2018-04-30T07:07:23.353Z,184.70
2018-04-30T07:08:27.592Z,183.50
2018-04-30T07:09:31.920Z,201.90
2018-04-30T07:10:36.795Z,186.37
2018-04-30T07:11:40.973Z,203.33
2018-04-30T07:12:45.932Z,196.03
2018-04-30T07:13:50.636Z,187.83
2018-04-30T07:14:55.577Z,192.27
2018-04-30T07:15:59.757Z,188.50
2018-04-30T07:17:03.930Z,211.43
2018-04-30T07:18:08.106Z,222.60
2018-04-30T07:19:13.064Z,198.30
2018-04-30T07:20:17.265Z,186.90
2018-04-30T07:21:21.684Z,183.63
2018-04-30T07:22:25.852Z,190.70
2018-04-30T07:23:30.792Z,187.97
2018-04-30T07:24:35.837Z,176.40
2018-04-30T07:25:40.014Z,187.90
2018-04-30T07:26:44.214Z,213.00
2018-04-30T07:27:48.484Z,174.73
2018-04-30T07:28:52.718Z,168.20
2018-04-30T07:29:57.369Z,177.60
2018-04-30T07:31:01.550Z,181.53
2018-04-30T07:32:05.724Z,168.77
2018-04-30T07:33:09.996Z,166.23
2018-04-30T07:34:14.158Z,158.60
2018-04-30T07:35:18.340Z,141.77
2018-04-30T07:36:23.281Z,137.33
2018-04-30T07:37:27.487Z,143.80
2018-04-30T07:38:32.450Z,159.17
2018-04-30T07:39:36.621Z,136.37
2018-04-30T07:40:40.796Z,104.47
2018-04-30T07:41:45.229Z,76.10
2018-04-30T07:42:50.165Z,74.93
2018-04-30T07:43:55.182Z,76.87
2018-04-30T07:45:00.134Z,75.33
2018-04-30T07:46:04.350Z,63.10
2018-04-30T07:47:08.546Z,55.03
2018-04-30T07:48:13.828Z,53.57
2018-04-30T07:49:18.085Z,52.67
2018-04-30T07:50:22.196Z,63.77
2018-04-30T07:51:27.155Z,48.33
2018-04-30T07:52:31.332Z,49.40
2018-04-30T07:53:36.313Z,47.20
2018-04-30T07:54:40.541Z,49.60
2018-04-30T07:55:44.687Z,43.80
2018-04-30T07:56:49.674Z,43.77
2018-04-30T07:57:53.864Z,48.50
2018-04-30T07:58:58.548Z,40.00
2018-04-30T08:00:03.518Z,45.13
2018-04-30T08:01:07.697Z,44.30
2018-04-30T08:02:12.635Z,45.27
2018-04-30T08:03:16.834Z,50.13
2018-04-30T08:04:21.886Z,49.53
2018-04-30T08:05:26.161Z,47.97
2018-04-30T08:06:31.175Z,42.87
2018-04-30T08:07:35.353Z,44.70
2018-04-30T08:08:39.512Z,46.63
2018-04-30T08:09:44.659Z,46.03
2018-04-30T08:10:49.585Z,43.07
2018-04-30T08:11:53.762Z,46.63
2018-04-30T08:12:58.716Z,44.30
2018-04-30T08:14:03.674Z,41.30
2018-04-30T08:15:08.074Z,42.23
2018-04-30T08:16:14.980Z,41.30
2018-04-30T08:17:22.228Z,43.37
2018-04-30T08:18:32.199Z,39.70
2018-04-30T08:19:37.006Z,45.90
2018-04-30T08:20:41.530Z,46.80
2018-04-30T08:21:45.702Z,41.33
2018-04-30T08:22:50.658Z,38.80
2018-04-30T08:23:54.865Z,43.20
2018-04-30T08:24:59.073Z,42.37
2018-04-30T08:26:04.422Z,45.83
2018-04-30T08:27:08.593Z,39.83
2018-04-30T08:28:12.762Z,39.73
2018-04-30T08:29:16.928Z,36.97
2018-04-30T08:30:21.917Z,46.67
2018-04-30T08:31:26.584Z,43.03
2018-04-30T08:32:31.526Z,46.30
2018-04-30T08:33:35.697Z,42.60
2018-04-30T08:34:39.864Z,40.90
2018-04-30T08:35:44.042Z,38.63
2018-04-30T08:36:49.017Z,33.93
2018-04-30T08:37:53.578Z,37.17
2018-04-30T08:38:58.517Z,36.37
2018-04-30T08:40:03.617Z,36.47
2018-04-30T08:41:07.785Z,31.73
2018-04-30T08:42:11.962Z,30.07
2018-04-30T08:43:16.932Z,31.33
2018-04-30T08:44:21.612Z,28.70
2018-04-30T08:45:26.565Z,29.73
2018-04-30T08:46:30.741Z,28.37
2018-04-30T08:47:35.686Z,31.87
2018-04-30T08:48:39.878Z,30.90
2018-04-30T08:49:45.356Z,33.60
2018-04-30T08:50:49.534Z,34.13
2018-04-30T08:51:54.464Z,28.57
2018-04-30T08:52:59.395Z,29.43
2018-04-30T08:54:04.341Z,30.07
2018-04-30T08:55:08.538Z,26.67
2018-04-30T08:56:13.474Z,27.50
2018-04-30T08:57:18.002Z,25.70
2018-04-30T08:58:22.172Z,21.23
2018-04-30T08:59:26.337Z,21.40
2018-04-30T09:00:30.607Z,25.70
2018-04-30T09:01:34.696Z,24.80
2018-04-30T09:02:39.002Z,29.90
2018-04-30T09:03:43.988Z,22.63
2018-04-30T09:04:48.183Z,26.73
2018-04-30T09:05:52.585Z,21.97
2018-04-30T09:06:57.531Z,21.23
2018-04-30T09:08:01.719Z,16.87
2018-04-30T09:09:06.668Z,23.37
2018-04-30T09:10:10.857Z,22.93
2018-04-30T09:11:15.836Z,22.30
2018-04-30T09:12:20.022Z,21.20
2018-04-30T09:13:24.194Z,20.70
2018-04-30T09:14:28.357Z,20.40
2018-04-30T09:15:32.529Z,14.47
2018-04-30T09:16:37.487Z,14.07
2018-04-30T09:17:41.805Z,15.50
2018-04-30T09:18:45.982Z,13.93
2018-04-30T09:19:50.914Z,9.87
2018-04-30T09:20:55.859Z,11.10
2018-04-30T09:22:00.090Z,11.17
2018-04-30T09:23:04.319Z,10.90
2018-04-30T09:24:08.488Z,11.33
2018-04-30T09:25:12.668Z,11.90
2018-04-30T09:26:16.842Z,10.10
2018-04-30T09:27:21.008Z,13.80
2018-04-30T09:28:25.201Z,13.60
2018-04-30T09:29:30.121Z,8.80
2018-04-30T09:30:34.288Z,10.37
2018-04-30T09:31:38.468Z,8.83
2018-04-30T09:32:42.697Z,11.77
2018-04-30T09:33:46.889Z,8.63
2018-04-30T09:34:51.073Z,11.23
2018-04-30T09:35:56.000Z,9.70
2018-04-30T09:37:00.944Z,11.13
2018-04-30T09:38:05.665Z,7.73
2018-04-30T09:39:10.589Z,9.30
2018-04-30T09:40:15.531Z,16.33
2018-04-30T09:41:19.710Z,10.03
2018-04-30T09:42:23.910Z,8.80
2018-04-30T09:43:28.097Z,7.60
2018-04-30T09:44:32.261Z,5.70
2018-04-30T09:45:37.200Z,6.43
2018-04-30T09:46:41.497Z,10.33
2018-04-30T09:47:46.429Z,5.17
2018-04-30T09:48:51.353Z,7.73
2018-04-30T09:49:56.298Z,3.43
2018-04-30T09:51:00.463Z,3.43
2018-04-30T09:52:04.810Z,3.30
2018-04-30T09:53:09.742Z,5.03
2018-04-30T09:54:14.673Z,4.60
2018-04-30T09:55:18.838Z,4.43
2018-04-30T09:56:22.997Z,3.23
2018-04-30T09:57:27.398Z,4.50
2018-04-30T09:58:32.334Z,2.53
2018-04-30T09:59:37.273Z,3.03
2018-04-30T10:00:41.433Z,2.73
2018-04-30T10:01:45.596Z,9.10
2018-04-30T10:02:49.779Z,2.77
2018-04-30T10:03:54.722Z,5.03
2018-04-30T10:04:58.880Z,3.27
2018-04-30T10:06:03.070Z,7.43
2018-04-30T10:07:07.237Z,3.10
2018-04-30T10:08:12.184Z,2.47
2018-04-30T10:09:16.344Z,3.60
2018-04-30T10:10:22.034Z,2.27
2018-04-30T10:11:26.193Z,2.60
2018-04-30T10:12:30.369Z,6.67
2018-04-30T10:13:34.526Z,7.40
2018-04-30T10:14:38.732Z,3.30
2018-04-30T10:15:44.422Z,3.47
2018-04-30T10:16:48.581Z,4.27
2018-04-30T10:17:52.803Z,5.03
2018-04-30T10:18:56.946Z,5.10
2018-04-30T10:20:01.129Z,3.60
2018-04-30T10:21:06.424Z,4.23
2018-04-30T10:22:10.599Z,4.83
2018-04-30T10:23:14.773Z,32.57
2018-04-30T10:24:18.935Z,9.50
2018-04-30T10:25:23.098Z,7.43
2018-04-30T10:26:27.654Z,3.00
2018-04-30T10:27:31.821Z,4.43
2018-04-30T10:28:36.037Z,10.13
2018-04-30T10:29:40.173Z,4.40
2018-04-30T10:30:45.110Z,3.37
2018-04-30T10:31:49.510Z,11.90
2018-04-30T10:32:54.443Z,13.73
2018-04-30T10:33:59.381Z,7.73
2018-04-30T10:35:03.546Z,4.80
2018-04-30T10:36:07.716Z,4.03
2018-04-30T10:37:11.908Z,10.83
2018-04-30T10:38:16.064Z,6.10
2018-04-30T10:39:20.270Z,4.73
2018-04-30T10:40:24.433Z,8.80
2018-04-30T10:41:29.425Z,3.63
2018-04-30T10:42:33.604Z,3.07
2018-04-30T10:43:37.777Z,3.23
2018-04-30T10:44:42.706Z,4.53
2018-04-30T10:45:47.713Z,3.50
2018-04-30T10:46:52.114Z,3.30
2018-04-30T10:47:56.284Z,3.80
2018-04-30T10:49:00.444Z,6.40
2018-04-30T10:50:04.632Z,4.30
2018-04-30T10:51:08.797Z,3.07
2018-04-30T10:52:13.007Z,5.00
2018-04-30T10:53:17.165Z,3.80
2018-04-30T10:54:21.338Z,3.17
2018-04-30T10:55:25.502Z,3.10
2018-04-30T10:56:29.665Z,3.53
2018-04-30T10:57:34.257Z,6.57
2018-04-30T10:58:39.201Z,4.03
2018-04-30T10:59:43.359Z,3.90
2018-04-30T11:00:47.522Z,4.30
2018-04-30T11:01:51.689Z,4.40
2018-04-30T11:02:55.889Z,3.33
2018-04-30T11:04:00.060Z,3.03
2018-04-30T11:05:04.661Z,5.00
2018-04-30T11:06:08.817Z,8.70
2018-04-30T11:07:12.986Z,3.67
2018-04-30T11:08:17.233Z,3.97
2018-04-30T11:09:21.400Z,2.97
2018-04-30T11:10:26.369Z,4.20
2018-04-30T11:11:30.551Z,3.20
2018-04-30T11:12:34.714Z,3.40
2018-04-30T11:13:38.892Z,2.20
2018-04-30T11:14:43.067Z,4.30
2018-04-30T11:15:48.022Z,2.70
2018-04-30T11:16:52.310Z,4.67
2018-04-30T11:17:56.476Z,2.80
2018-04-30T11:19:01.412Z,3.97
2018-04-30T11:20:07.096Z,2.53
2018-04-30T11:21:11.260Z,4.17
2018-04-30T11:22:15.515Z,2.53
2018-04-30T11:23:19.709Z,2.33
2018-04-30T11:24:24.904Z,3.70
2018-04-30T11:25:29.070Z,2.17
2018-04-30T11:26:33.245Z,3.30
2018-04-30T11:27:37.421Z,1.87
2018-04-30T11:28:42.089Z,2.47
2018-04-30T11:29:47.025Z,18.70
2018-04-30T11:30:51.952Z,2.97
2018-04-30T11:31:56.880Z,2.43
2018-04-30T11:33:01.822Z,1.53
2018-04-30T11:34:06.470Z,5.07
2018-04-30T11:35:10.864Z,3.30
2018-04-30T11:36:15.062Z,3.70
2018-04-30T11:37:19.230Z,2.50
2018-04-30T11:38:24.909Z,2.23
2018-04-30T11:39:29.114Z,3.13
2018-04-30T11:40:34.071Z,3.00
2018-04-30T11:41:38.245Z,2.23
2018-04-30T11:42:43.176Z,2.87
2018-04-30T11:43:48.182Z,2.40
2018-04-30T11:44:52.423Z,3.90
2018-04-30T11:45:56.719Z,2.47
2018-04-30T11:47:01.778Z,3.17
2018-04-30T11:48:05.991Z,3.53
2018-04-30T11:49:10.174Z,1.97
2018-04-30T11:50:15.112Z,3.30
2018-04-30T11:51:20.109Z,2.30
2018-04-30T11:52:24.288Z,3.20
2018-04-30T11:53:31.200Z,3.77
2018-04-30T11:54:35.576Z,2.10
2018-04-30T11:55:39.745Z,3.23
2018-04-30T11:56:43.984Z,5.70
2018-04-30T11:57:48.695Z,3.83
2018-04-30T11:58:52.877Z,2.57
2018-04-30T11:59:57.821Z,2.80
2018-04-30T12:01:02.008Z,2.83
2018-04-30T12:02:06.977Z,2.80
2018-04-30T12:03:11.198Z,3.00
2018-04-30T12:04:15.398Z,3.47
2018-04-30T12:05:19.570Z,2.07
2018-04-30T12:06:23.733Z,2.70
2018-04-30T12:07:27.927Z,1.93
2018-04-30T12:08:32.466Z,4.63
2018-04-30T12:09:36.686Z,4.13
2018-04-30T12:10:40.867Z,2.40
2018-04-30T12:11:45.028Z,2.80
2018-04-30T12:12:49.217Z,7.87
2018-04-30T12:13:53.453Z,2.50
2018-04-30T12:14:57.646Z,4.63
2018-04-30T12:16:01.845Z,2.17
2018-04-30T12:17:06.054Z,6.43
2018-04-30T12:18:10.227Z,2.40
2018-04-30T12:19:14.836Z,3.70
2018-04-30T12:20:19.776Z,9.60
2018-04-30T12:21:23.956Z,3.23
2018-04-30T12:22:28.125Z,2.70
2018-04-30T12:23:32.353Z,3.13
2018-04-30T12:24:36.684Z,2.33
2018-04-30T12:25:41.030Z,2.57
2018-04-30T12:26:46.009Z,3.10
2018-04-30T12:27:50.228Z,4.60
2018-04-30T12:28:54.436Z,2.87
2018-04-30T12:29:58.655Z,3.00
2018-04-30T12:31:03.360Z,2.70
2018-04-30T12:32:10.244Z,4.30
2018-04-30T12:33:14.433Z,6.97
2018-04-30T12:34:18.622Z,2.80
2018-04-30T12:35:22.814Z,2.93
2018-04-30T12:36:27.794Z,4.10
2018-04-30T12:37:32.323Z,3.20
2018-04-30T12:38:36.781Z,8.60
2018-04-30T12:39:42.831Z,2.37
2018-04-30T12:40:47.777Z,3.10
2018-04-30T12:41:52.015Z,9.30
2018-04-30T12:42:56.185Z,4.07
2018-04-30T12:44:01.246Z,2.33
2018-04-30T12:45:05.477Z,2.43
2018-04-30T12:46:09.652Z,6.00
2018-04-30T12:47:14.394Z,2.40
2018-04-30T12:48:18.584Z,2.07
2018-04-30T12:49:23.357Z,3.13
2018-04-30T12:50:27.464Z,2.20
2018-04-30T12:51:32.372Z,2.23
2018-04-30T12:52:36.670Z,8.73
2018-04-30T12:53:40.836Z,3.60
2018-04-30T12:54:45.820Z,1.80
2018-04-30T12:55:50.025Z,2.00
2018-04-30T12:56:54.215Z,21.60
2018-04-30T12:57:58.438Z,1.80
2018-04-30T12:59:02.629Z,2.10
2018-04-30T13:00:08.209Z,1.60
2018-04-30T13:01:12.405Z,2.03
2018-04-30T13:02:16.577Z,3.57
2018-04-30T13:03:21.709Z,3.83
2018-04-30T13:04:26.666Z,2.50
2018-04-30T13:05:30.849Z,6.80
2018-04-30T13:06:35.061Z,1.47
2018-04-30T13:07:40.010Z,2.27
2018-04-30T13:08:44.312Z,2.37
2018-04-30T13:09:48.492Z,10.73
2018-04-30T13:10:53.665Z,1.97
2018-04-30T13:11:57.889Z,2.10
2018-04-30T13:13:02.069Z,3.53
2018-04-30T13:14:07.341Z,1.73
2018-04-30T13:15:11.812Z,3.57
2018-04-30T13:16:16.064Z,1.63
2018-04-30T13:17:20.234Z,2.50
2018-04-30T13:18:24.393Z,3.13
2018-04-30T13:19:28.557Z,1.80
2018-04-30T13:20:33.488Z,3.27
2018-04-30T13:21:38.449Z,2.03
2018-04-30T13:22:42.610Z,7.23
2018-04-30T13:23:46.829Z,1.80
2018-04-30T13:24:50.984Z,1.90
2018-04-30T13:25:55.157Z,5.13
2018-04-30T13:27:00.085Z,1.70
2018-04-30T13:28:05.025Z,2.20
2018-04-30T13:29:09.973Z,4.10
2018-04-30T13:30:14.656Z,1.47
2018-04-30T13:31:19.582Z,1.57
2018-04-30T13:32:24.518Z,5.00
2018-04-30T13:33:29.454Z,2.30
2018-04-30T13:34:34.409Z,1.23
2018-04-30T13:35:38.628Z,1.50
2018-04-30T13:36:42.845Z,2.30
2018-04-30T13:37:47.009Z,2.60
2018-04-30T13:38:51.930Z,2.37
2018-04-30T13:39:56.882Z,3.13
2018-04-30T13:41:01.123Z,2.37
2018-04-30T13:42:05.309Z,1.37
2018-04-30T13:43:09.488Z,1.33
2018-04-30T13:44:14.417Z,2.80
2018-04-30T13:45:19.353Z,2.33
2018-04-30T13:46:23.666Z,7.07
2018-04-30T13:47:28.593Z,4.50
2018-04-30T13:48:33.524Z,2.70